Aérodrome :
LOGIN :

S'inscrire | Disclaimer

   EN    FR    IT 

 










Légende :    VFR   VFR Marginal   IFR   IFR Intensif   IFR Très Intensif
Visi : 
Plafond : 
>= 8 km
>= 3000ft
5 à 8 km
1000 à 3000 ft
1500m à 5 km
500 à 1000 ft
800 à 1500m
200 à 500 ft
< 800m
< 200 ft
Symboles :   Orages  Brouillard  Fortes neiges  Fortes précipitations  Vent > 20 kt
SIGMETs :   Divers  Orages  Givrage  Turbulence  Onde Orograph.  Cendres Volcan.







- Altitude de l'aérodrome : 289 ft
- Voir les cartes d'approche


LFYR - Romorantin Pruniers

DERNIER METAR :
  • 262230Z AUTO 00000KT 3100 BR NSC 17/16 Q1013

METARs EXPIRÉS :
  • 262200Z AUTO 00000KT CAVOK 18/16 Q1013
  • 262130Z AUTO 00000KT CAVOK 18/16 Q1013
  • 262100Z AUTO 00000KT CAVOK 19/17 Q1013
  • 262030Z AUTO 07001KT CAVOK 20/17 Q1013
  • 262000Z AUTO VRB01KT CAVOK 21/17 Q1013
  • 261930Z AUTO 10001KT CAVOK 23/18 Q1013

Prévision TAF périmée.
Pas de NOTAMs connus pour ce terrain.



MET'MAP, la Météo Aéronautique d'un coup d'oeil ! - Copyright ORBIFLY Décembre 2007 - Disclaimer

ORBIFLY MET'MAP TEAM :

Programmation & Développement : Alexandra Zaïnal
Conception & Développement : Baudouin d'Aumeries
Co-Programmation & Développement : Marc-Olivier Méhu
Soutien technique & logistique : Manuel Goepfert

Contact : metmap@orbifly.com




SOURCES & CREDITS :

   NOAA